sensor_id;sensor_type;location;lat;lon;timestamp;pressure;altitude;pressure_sealevel;temperature;humidity
70027;BME280;57506;50.092;15.804;2022-08-01T00:00:20;98961.75;;;16.23;100.00
70027;BME280;57506;50.092;15.804;2022-08-01T00:02:45;98953.22;;;16.31;100.00
70027;BME280;57506;50.092;15.804;2022-08-01T00:05:11;98953.94;;;16.38;100.00
70027;BME280;57506;50.092;15.804;2022-08-01T00:07:37;98956.75;;;16.43;100.00
70027;BME280;57506;50.092;15.804;2022-08-01T00:10:04;98961.13;;;16.44;100.00
70027;BME280;57506;50.092;15.804;2022-08-01T00:12:30;98950.50;;;16.43;100.00
70027;BME280;57506;50.092;15.804;2022-08-01T00:14:56;98939.84;;;16.41;98.66
70027;BME280;57506;50.092;15.804;2022-08-01T00:17:21;98943.63;;;16.52;99.70
70027;BME280;57506;50.092;15.804;2022-08-01T00:19:47;98936.06;;;16.42;98.38
70027;BME280;57506;50.092;15.804;2022-08-01T00:22:12;98943.28;;;16.49;98.51
70027;BME280;57506;50.092;15.804;2022-08-01T00:24:38;98949.78;;;16.48;97.65
70027;BME280;57506;50.092;15.804;2022-08-01T00:27:03;98937.94;;;16.42;98.13
70027;BME280;57506;50.092;15.804;2022-08-01T00:29:29;98953.81;;;16.45;97.68
70027;BME280;57506;50.092;15.804;2022-08-01T00:31:55;98944.22;;;16.42;98.42
70027;BME280;57506;50.092;15.804;2022-08-01T00:34:20;98937.63;;;16.38;98.11
70027;BME280;57506;50.092;15.804;2022-08-01T00:36:46;98946.59;;;16.51;97.56
70027;BME280;57506;50.092;15.804;2022-08-01T00:39:12;98941.03;;;16.45;97.42
70027;BME280;57506;50.092;15.804;2022-08-01T00:41:37;98944.22;;;16.42;97.90
70027;BME280;57506;50.092;15.804;2022-08-01T00:44:06;98943.75;;;16.45;98.42
70027;BME280;57506;50.092;15.804;2022-08-01T00:46:32;98952.50;;;16.48;99.19
70027;BME280;57506;50.092;15.804;2022-08-01T00:48:59;98934.06;;;16.50;100.00
70027;BME280;57506;50.092;15.804;2022-08-01T00:51:26;98937.38;;;16.52;100.00
70027;BME280;57506;50.092;15.804;2022-08-01T00:53:52;98944.59;;;16.46;98.77
70027;BME280;57506;50.092;15.804;2022-08-01T00:56:24;98952.63;;;16.53;99.04
70027;BME280;57506;50.092;15.804;2022-08-01T00:58:50;98935.13;;;16.49;97.54
70027;BME280;57506;50.092;15.804;2022-08-01T01:01:16;98950.50;;;16.55;97.48
70027;BME280;57506;50.092;15.804;2022-08-01T01:03:42;98947.50;;;16.56;98.03
70027;BME280;57506;50.092;15.804;2022-08-01T01:09:15;98938.06;;;16.47;98.21
70027;BME280;57506;50.092;15.804;2022-08-01T01:12:12;98943.63;;;16.52;98.94
70027;BME280;57506;50.092;15.804;2022-08-01T01:15:04;98936.19;;;16.48;99.17
70027;BME280;57506;50.092;15.804;2022-08-01T01:17:33;98933.47;;;16.48;98.40
70027;BME280;57506;50.092;15.804;2022-08-01T01:20:02;98941.97;;;16.51;97.81
70027;BME280;57506;50.092;15.804;2022-08-01T01:28:12;98948.25;;;16.52;98.56
70027;BME280;57506;50.092;15.804;2022-08-01T01:30:43;98937.00;;;16.48;97.39
70027;BME280;57506;50.092;15.804;2022-08-01T01:33:11;98944.78;;;16.56;99.46
70027;BME280;57506;50.092;15.804;2022-08-01T01:35:42;98936.56;;;16.63;98.11
70027;BME280;57506;50.092;15.804;2022-08-01T01:38:28;98930.13;;;16.57;99.10
70027;BME280;57506;50.092;15.804;2022-08-01T01:40:55;98944.25;;;16.66;98.34
70027;BME280;57506;50.092;15.804;2022-08-01T01:43:23;98938.41;;;16.62;98.77
70027;BME280;57506;50.092;15.804;2022-08-01T01:45:50;98932.28;;;16.55;99.48
70027;BME280;57506;50.092;15.804;2022-08-01T01:48:18;98921.88;;;16.52;98.91
70027;BME280;57506;50.092;15.804;2022-08-01T01:50:46;98921.53;;;16.49;99.43
70027;BME280;57506;50.092;15.804;2022-08-01T01:53:14;98935.25;;;16.54;98.41
70027;BME280;57506;50.092;15.804;2022-08-01T01:55:41;98930.28;;;16.51;98.24
70027;BME280;57506;50.092;15.804;2022-08-01T01:58:09;98921.06;;;16.52;98.24
70027;BME280;57506;50.092;15.804;2022-08-01T02:00:37;98929.56;;;16.55;98.97
70027;BME280;57506;50.092;15.804;2022-08-01T02:03:05;98912.88;;;16.52;98.89
70027;BME280;57506;50.092;15.804;2022-08-01T02:05:32;98915.97;;;16.55;99.04
70027;BME280;57506;50.092;15.804;2022-08-01T02:08:01;98912.97;;;16.57;99.28
70027;BME280;57506;50.092;15.804;2022-08-01T02:10:28;98921.28;;;16.50;99.75
70027;BME280;57506;50.092;15.804;2022-08-01T02:12:56;98917.84;;;16.43;99.91
70027;BME280;57506;50.092;15.804;2022-08-01T02:15:23;98917.41;;;16.34;99.91
70027;BME280;57506;50.092;15.804;2022-08-01T02:17:49;98918.25;;;16.23;100.00
70027;BME280;57506;50.092;15.804;2022-08-01T02:20:16;98909.50;;;16.21;100.00
70027;BME280;57506;50.092;15.804;2022-08-01T02:22:47;98925.31;;;16.24;100.00
70027;BME280;57506;50.092;15.804;2022-08-01T02:25:23;98925.22;;;16.19;100.00
70027;BME280;57506;50.092;15.804;2022-08-01T02:28:04;98929.44;;;16.27;100.00
70027;BME280;57506;50.092;15.804;2022-08-01T02:30:38;98905.22;;;16.25;100.00
70027;BME280;57506;50.092;15.804;2022-08-01T02:33:27;98921.28;;;16.27;100.00
70027;BME280;57506;50.092;15.804;2022-08-01T02:35:58;98910.56;;;16.20;100.00
70027;BME280;57506;50.092;15.804;2022-08-01T02:38:27;98915.41;;;16.18;100.00
70027;BME280;57506;50.092;15.804;2022-08-01T02:40:57;98895.88;;;16.09;100.00
70027;BME280;57506;50.092;15.804;2022-08-01T02:43:26;98911.03;;;16.17;100.00
70027;BME280;57506;50.092;15.804;2022-08-01T02:45:57;98905.47;;;16.12;100.00
70027;BME280;57506;50.092;15.804;2022-08-01T02:48:25;98914.22;;;16.14;100.00
70027;BME280;57506;50.092;15.804;2022-08-01T02:50:55;98914.09;;;16.21;100.00
70027;BME280;57506;50.092;15.804;2022-08-01T02:53:23;98916.09;;;16.25;100.00
70027;BME280;57506;50.092;15.804;2022-08-01T02:55:51;98917.75;;;16.26;100.00
70027;BME280;57506;50.092;15.804;2022-08-01T02:58:19;98924.38;;;16.30;100.00
70027;BME280;57506;50.092;15.804;2022-08-01T03:00:46;98916.69;;;16.27;100.00
70027;BME280;57506;50.092;15.804;2022-08-01T03:03:13;98920.00;;;16.29;100.00
70027;BME280;57506;50.092;15.804;2022-08-01T03:05:39;98913.72;;;16.29;100.00
70027;BME280;57506;50.092;15.804;2022-08-01T03:08:08;98903.00;;;16.22;100.00
70027;BME280;57506;50.092;15.804;2022-08-01T03:10:36;98916.91;;;16.26;100.00
70027;BME280;57506;50.092;15.804;2022-08-01T03:13:03;98914.78;;;16.28;100.00
70027;BME280;57506;50.092;15.804;2022-08-01T03:15:32;98917.75;;;16.26;100.00
70027;BME280;57506;50.092;15.804;2022-08-01T03:17:59;98927.78;;;16.26;100.00
70027;BME280;57506;50.092;15.804;2022-08-01T03:20:27;98922.34;;;16.26;100.00
70027;BME280;57506;50.092;15.804;2022-08-01T03:22:56;98922.25;;;16.21;100.00
70027;BME280;57506;50.092;15.804;2022-08-01T03:25:23;98921.66;;;16.30;100.00
70027;BME280;57506;50.092;15.804;2022-08-01T03:27:54;98912.88;;;16.40;100.00
70027;BME280;57506;50.092;15.804;2022-08-01T03:30:23;98928.63;;;16.50;100.00
70027;BME280;57506;50.092;15.804;2022-08-01T03:32:50;98930.75;;;16.48;100.00
70027;BME280;57506;50.092;15.804;2022-08-01T03:35:16;98929.22;;;16.52;100.00
70027;BME280;57506;50.092;15.804;2022-08-01T03:37:46;98916.09;;;16.49;100.00
70027;BME280;57506;50.092;15.804;2022-08-01T03:40:30;98923.06;;;16.44;100.00
70027;BME280;57506;50.092;15.804;2022-08-01T03:43:02;98930.03;;;16.40;100.00
70027;BME280;57506;50.092;15.804;2022-08-01T03:45:35;98930.53;;;16.37;100.00
70027;BME280;57506;50.092;15.804;2022-08-01T03:48:08;98930.53;;;16.37;100.00
70027;BME280;57506;50.092;15.804;2022-08-01T03:50:36;98926.75;;;16.38;100.00
70027;BME280;57506;50.092;15.804;2022-08-01T03:53:06;98932.03;;;16.45;100.00
70027;BME280;57506;50.092;15.804;2022-08-01T03:55:36;98942.81;;;16.52;100.00
70027;BME280;57506;50.092;15.804;2022-08-01T03:58:03;98939.03;;;16.53;100.00
70027;BME280;57506;50.092;15.804;2022-08-01T04:00:30;98937.84;;;16.49;100.00
70027;BME280;57506;50.092;15.804;2022-08-01T04:02:56;98931.22;;;16.44;100.00
70027;BME280;57506;50.092;15.804;2022-08-01T04:05:23;98944.22;;;16.42;100.00
70027;BME280;57506;50.092;15.804;2022-08-01T04:07:50;98950.50;;;16.43;100.00
70027;BME280;57506;50.092;15.804;2022-08-01T04:10:24;98950.03;;;16.46;100.00
70027;BME280;57506;50.092;15.804;2022-08-01T04:12:49;98951.56;;;16.54;100.00
70027;BME280;57506;50.092;15.804;2022-08-01T04:15:15;98962.31;;;16.60;100.00
70027;BME280;57506;50.092;15.804;2022-08-01T04:17:41;98945.97;;;16.60;100.00
70027;BME280;57506;50.092;15.804;2022-08-01T04:20:07;98962.44;;;16.77;100.00
70027;BME280;57506;50.092;15.804;2022-08-01T04:22:33;98962.31;;;16.84;100.00
70027;BME280;57506;50.092;15.804;2022-08-01T04:25:00;98954.16;;;16.84;100.00
70027;BME280;57506;50.092;15.804;2022-08-01T04:27:37;98952.72;;;16.81;100.00
70027;BME280;57506;50.092;15.804;2022-08-01T04:30:05;98961.00;;;16.86;100.00
70027;BME280;57506;50.092;15.804;2022-08-01T04:32:36;98957.69;;;16.84;100.00
70027;BME280;57506;50.092;15.804;2022-08-01T04:35:06;98965.94;;;16.89;100.00
70027;BME280;57506;50.092;15.804;2022-08-01T04:37:33;98966.94;;;16.83;100.00
70027;BME280;57506;50.092;15.804;2022-08-01T04:40:03;98957.69;;;16.84;100.00
70027;BME280;57506;50.092;15.804;2022-08-01T04:42:31;98971.50;;;16.94;100.00
70027;BME280;57506;50.092;15.804;2022-08-01T04:44:58;98954.34;;;16.94;100.00
70027;BME280;57506;50.092;15.804;2022-08-01T04:47:25;98960.75;;;16.99;100.00
70027;BME280;57506;50.092;15.804;2022-08-01T04:49:51;98956.06;;;17.11;100.00
70027;BME280;57506;50.092;15.804;2022-08-01T04:52:17;98948.59;;;17.19;100.00
70027;BME280;57506;50.092;15.804;2022-08-01T04:54:43;98946.19;;;17.34;100.00
70027;BME280;57506;50.092;15.804;2022-08-01T04:57:08;98955.47;;;17.49;99.00
70027;BME280;57506;50.092;15.804;2022-08-01T04:59:37;98966.06;;;17.63;99.54
70027;BME280;57506;50.092;15.804;2022-08-01T05:02:08;98964.34;;;17.73;98.58
70027;BME280;57506;50.092;15.804;2022-08-01T05:04:34;98954.97;;;17.81;98.67
70027;BME280;57506;50.092;15.804;2022-08-01T05:07:00;98951.56;;;17.91;97.68
70027;BME280;57506;50.092;15.804;2022-08-01T05:09:26;98954.88;;;17.93;97.10
70027;BME280;57506;50.092;15.804;2022-08-01T05:11:51;98953.41;;;17.85;95.99
70027;BME280;57506;50.092;15.804;2022-08-01T05:14:17;98949.91;;;17.90;93.57
70027;BME280;57506;50.092;15.804;2022-08-01T05:16:42;98955.31;;;18.01;94.37
70027;BME280;57506;50.092;15.804;2022-08-01T05:19:08;98943.56;;;17.84;95.56
70027;BME280;57506;50.092;15.804;2022-08-01T05:21:34;98946.28;;;17.84;96.50
70027;BME280;57506;50.092;15.804;2022-08-01T05:24:00;98952.31;;;18.03;96.33
70027;BME280;57506;50.092;15.804;2022-08-01T05:26:26;98948.75;;;18.19;97.83
70027;BME280;57506;50.092;15.804;2022-08-01T05:28:51;98940.31;;;18.37;96.24
70027;BME280;57506;50.092;15.804;2022-08-01T05:31:17;98954.03;;;18.59;94.91
70027;BME280;57506;50.092;15.804;2022-08-01T05:33:42;98945.88;;;18.81;93.30
70027;BME280;57506;50.092;15.804;2022-08-01T05:36:07;98944.41;;;18.95;92.01
70027;BME280;57506;50.092;15.804;2022-08-01T05:38:33;98951.31;;;19.25;90.75
70027;BME280;57506;50.092;15.804;2022-08-01T05:40:59;98955.19;;;19.50;87.69
70027;BME280;57506;50.092;15.804;2022-08-01T05:43:24;98940.69;;;19.50;87.25
70027;BME280;57506;50.092;15.804;2022-08-01T05:45:50;98931.72;;;19.54;85.87
70027;BME280;57506;50.092;15.804;2022-08-01T05:48:16;98948.06;;;19.76;86.93
70027;BME280;57506;50.092;15.804;2022-08-01T05:50:41;98932.34;;;19.94;84.75
70027;BME280;57506;50.092;15.804;2022-08-01T05:53:07;98946.47;;;20.12;82.08
70027;BME280;57506;50.092;15.804;2022-08-01T05:55:32;98946.97;;;20.41;80.49
70027;BME280;57506;50.092;15.804;2022-08-01T05:57:58;98938.31;;;20.59;81.07
70027;BME280;57506;50.092;15.804;2022-08-01T06:00:23;98946.63;;;20.80;79.01
70027;BME280;57506;50.092;15.804;2022-08-01T06:02:49;98947.78;;;20.89;77.85
70027;BME280;57506;50.092;15.804;2022-08-01T06:05:15;98957.03;;;20.73;78.59
70027;BME280;57506;50.092;15.804;2022-08-01T06:07:41;98942.16;;;20.58;78.56
70027;BME280;57506;50.092;15.804;2022-08-01T06:10:09;98940.63;;;20.83;79.60
70027;BME280;57506;50.092;15.804;2022-08-01T06:12:35;98948.72;;;21.10;77.53
70027;BME280;57506;50.092;15.804;2022-08-01T06:15:01;98938.09;;;21.28;76.66
70027;BME280;57506;50.092;15.804;2022-08-01T06:18:00;98948.59;;;21.62;75.66
70027;BME280;57506;50.092;15.804;2022-08-01T06:20:56;98920.63;;;21.55;75.06
70027;BME280;57506;50.092;15.804;2022-08-01T06:23:21;98948.38;;;21.99;73.75
70027;BME280;57506;50.092;15.804;2022-08-01T06:25:47;98922.84;;;21.93;73.48
70027;BME280;57506;50.092;15.804;2022-08-01T06:28:13;98924.53;;;22.05;73.25
70027;BME280;57506;50.092;15.804;2022-08-01T06:30:39;98959.09;;;22.21;71.87
70027;BME280;57506;50.092;15.804;2022-08-01T06:33:04;98958.81;;;22.32;72.02
70027;BME280;57506;50.092;15.804;2022-08-01T06:35:30;98936.59;;;22.09;72.18
70027;BME280;57506;50.092;15.804;2022-08-01T06:37:59;98929.47;;;22.13;72.25
70027;BME280;57506;50.092;15.804;2022-08-01T06:40:24;98945.94;;;22.23;72.95
70027;BME280;57506;50.092;15.804;2022-08-01T06:42:50;98925.59;;;22.39;73.81
70027;BME280;57506;50.092;15.804;2022-08-01T06:45:16;98950.22;;;22.75;71.06
70027;BME280;57506;50.092;15.804;2022-08-01T06:47:44;98938.41;;;22.84;69.81
70027;BME280;57506;50.092;15.804;2022-08-01T06:50:11;98957.34;;;22.96;73.29
70027;BME280;57506;50.092;15.804;2022-08-01T06:52:39;98962.19;;;23.19;71.29
70027;BME280;57506;50.092;15.804;2022-08-01T06:55:05;98961.16;;;23.05;72.11
70027;BME280;57506;50.092;15.804;2022-08-01T06:57:31;98973.16;;;23.24;68.87
70027;BME280;57506;50.092;15.804;2022-08-01T06:59:57;98968.75;;;23.28;66.73
70027;BME280;57506;50.092;15.804;2022-08-01T07:02:26;98964.41;;;23.17;68.14
70027;BME280;57506;50.092;15.804;2022-08-01T07:04:59;98961.91;;;23.21;68.17
70027;BME280;57506;50.092;15.804;2022-08-01T07:07:26;98957.47;;;23.30;68.03
70027;BME280;57506;50.092;15.804;2022-08-01T07:09:52;98978.78;;;23.63;66.08
70027;BME280;57506;50.092;15.804;2022-08-01T07:12:17;98965.47;;;23.76;65.54
70027;BME280;57506;50.092;15.804;2022-08-01T07:14:43;98947.28;;;23.85;66.29
70027;BME280;57506;50.092;15.804;2022-08-01T07:17:09;98959.28;;;23.99;63.68
70027;BME280;57506;50.092;15.804;2022-08-01T07:19:34;98947.50;;;23.88;62.01
70027;BME280;57506;50.092;15.804;2022-08-01T07:22:00;98944.31;;;23.71;64.03
70027;BME280;57506;50.092;15.804;2022-08-01T07:24:25;98964.56;;;23.90;66.00
70027;BME280;57506;50.092;15.804;2022-08-01T07:26:51;98941.28;;;23.72;63.45
70027;BME280;57506;50.092;15.804;2022-08-01T07:29:16;98945.25;;;23.56;63.99
70027;BME280;57506;50.092;15.804;2022-08-01T07:31:42;98941.69;;;23.51;63.81
70027;BME280;57506;50.092;15.804;2022-08-01T07:34:07;98935.03;;;23.62;63.85
70027;BME280;57506;50.092;15.804;2022-08-01T07:36:33;98961.38;;;23.73;64.69
70027;BME280;57506;50.092;15.804;2022-08-01T07:38:58;98969.84;;;23.82;64.70
70027;BME280;57506;50.092;15.804;2022-08-01T07:41:23;98948.59;;;23.87;62.46
70027;BME280;57506;50.092;15.804;2022-08-01T07:43:49;98954.16;;;23.82;65.55
70027;BME280;57506;50.092;15.804;2022-08-01T07:46:16;98945.13;;;23.71;63.61
70027;BME280;57506;50.092;15.804;2022-08-01T07:48:42;98950.34;;;23.73;62.72
70027;BME280;57506;50.092;15.804;2022-08-01T07:51:07;98963.00;;;23.74;64.96
70027;BME280;57506;50.092;15.804;2022-08-01T07:53:35;98955.91;;;23.68;62.28
70027;BME280;57506;50.092;15.804;2022-08-01T07:56:01;98949.69;;;23.47;64.05
70027;BME280;57506;50.092;15.804;2022-08-01T07:58:28;98951.69;;;23.31;63.55
70027;BME280;57506;50.092;15.804;2022-08-01T08:00:53;98970.59;;;23.53;64.04
70027;BME280;57506;50.092;15.804;2022-08-01T08:03:19;98949.91;;;23.61;63.52
70027;BME280;57506;50.092;15.804;2022-08-01T08:05:44;98937.72;;;23.72;62.98
70027;BME280;57506;50.092;15.804;2022-08-01T08:08:10;98959.94;;;23.86;63.41
70027;BME280;57506;50.092;15.804;2022-08-01T08:10:35;98939.31;;;23.83;63.34
70027;BME280;57506;50.092;15.804;2022-08-01T08:13:02;98951.94;;;23.84;61.63
70027;BME280;57506;50.092;15.804;2022-08-01T08:15:28;98960.22;;;23.84;63.11
70027;BME280;57506;50.092;15.804;2022-08-01T08:17:54;98953.91;;;23.79;62.54
70027;BME280;57506;50.092;15.804;2022-08-01T08:20:19;98969.78;;;23.92;63.38
70027;BME280;57506;50.092;15.804;2022-08-01T08:22:50;98966.56;;;23.80;62.82
70027;BME280;57506;50.092;15.804;2022-08-01T08:25:15;98955.84;;;23.78;64.75
70027;BME280;57506;50.092;15.804;2022-08-01T08:27:41;98965.34;;;23.96;62.40
70027;BME280;57506;50.092;15.804;2022-08-01T08:30:07;98953.25;;;23.92;60.80
70027;BME280;57506;50.092;15.804;2022-08-01T08:32:34;98951.03;;;23.94;61.49
70027;BME280;57506;50.092;15.804;2022-08-01T08:34:59;98958.78;;;24.26;64.01
70027;BME280;57506;50.092;15.804;2022-08-01T08:37:25;98961.41;;;24.41;63.47
70027;BME280;57506;50.092;15.804;2022-08-01T08:39:50;98971.91;;;24.39;60.82
70027;BME280;57506;50.092;15.804;2022-08-01T08:42:16;98969.47;;;23.98;63.06
70027;BME280;57506;50.092;15.804;2022-08-01T08:44:42;98964.88;;;23.84;63.97
70027;BME280;57506;50.092;15.804;2022-08-01T08:47:11;98993.22;;;23.84;59.80
70027;BME280;57506;50.092;15.804;2022-08-01T08:49:37;98994.44;;;23.68;61.68
70027;BME280;57506;50.092;15.804;2022-08-01T08:52:03;98963.66;;;23.61;61.49
70027;BME280;57506;50.092;15.804;2022-08-01T08:54:30;98985.91;;;24.03;59.83
70027;BME280;57506;50.092;15.804;2022-08-01T08:56:57;98993.09;;;24.38;60.62
70027;BME280;57506;50.092;15.804;2022-08-01T08:59:24;98963.00;;;24.47;61.06
70027;BME280;57506;50.092;15.804;2022-08-01T09:01:50;98977.44;;;24.92;56.54
70027;BME280;57506;50.092;15.804;2022-08-01T09:04:16;98978.81;;;24.89;55.36
70027;BME280;57506;50.092;15.804;2022-08-01T09:06:42;98974.63;;;24.68;54.95
70027;BME280;57506;50.092;15.804;2022-08-01T09:09:09;98963.16;;;24.85;54.16
70027;BME280;57506;50.092;15.804;2022-08-01T09:11:35;98988.59;;;25.29;52.68
70027;BME280;57506;50.092;15.804;2022-08-01T09:14:03;98999.81;;;25.57;52.98
70027;BME280;57506;50.092;15.804;2022-08-01T09:16:30;98951.63;;;25.06;50.53
70027;BME280;57506;50.092;15.804;2022-08-01T09:19:08;98967.41;;;25.01;54.22
70027;BME280;57506;50.092;15.804;2022-08-01T09:21:33;98973.56;;;25.17;52.51
70027;BME280;57506;50.092;15.804;2022-08-01T09:23:59;98969.16;;;25.39;51.54
70027;BME280;57506;50.092;15.804;2022-08-01T09:26:31;98967.00;;;25.55;55.82
70027;BME280;57506;50.092;15.804;2022-08-01T09:28:59;98970.56;;;25.79;54.57
70027;BME280;57506;50.092;15.804;2022-08-01T09:31:27;98992.69;;;26.31;50.49
70027;BME280;57506;50.092;15.804;2022-08-01T09:33:57;98973.69;;;25.92;50.21
70027;BME280;57506;50.092;15.804;2022-08-01T09:39:15;98988.72;;;25.99;50.50
70027;BME280;57506;50.092;15.804;2022-08-01T09:41:41;98962.50;;;25.64;49.94
70027;BME280;57506;50.092;15.804;2022-08-01T09:44:06;98974.06;;;25.42;53.70
70027;BME280;57506;50.092;15.804;2022-08-01T09:46:32;98997.06;;;25.81;53.06
70027;BME280;57506;50.092;15.804;2022-08-01T09:49:05;98972.97;;;25.43;52.22
70027;BME280;57506;50.092;15.804;2022-08-01T09:51:36;98989.00;;;25.41;53.82
70027;BME280;57506;50.092;15.804;2022-08-01T09:54:04;98994.66;;;25.74;52.51
70027;BME280;57506;50.092;15.804;2022-08-01T09:56:42;98967.63;;;25.71;52.27
70027;BME280;57506;50.092;15.804;2022-08-01T09:59:08;98993.22;;;25.76;52.28
70027;BME280;57506;50.092;15.804;2022-08-01T10:04:11;98963.41;;;25.55;54.56
70027;BME280;57506;50.092;15.804;2022-08-01T10:06:41;98985.09;;;25.66;56.35
70027;BME280;57506;50.092;15.804;2022-08-01T10:09:10;98980.16;;;25.82;55.04
70027;BME280;57506;50.092;15.804;2022-08-01T10:11:36;98988.59;;;26.09;54.59
70027;BME280;57506;50.092;15.804;2022-08-01T10:14:05;98985.72;;;26.79;57.27
70027;BME280;57506;50.092;15.804;2022-08-01T10:16:35;98981.91;;;27.35;53.06
70027;BME280;57506;50.092;15.804;2022-08-01T10:19:03;98994.41;;;27.96;49.66
70027;BME280;57506;50.092;15.804;2022-08-01T10:21:32;98990.00;;;27.32;50.30
70027;BME280;57506;50.092;15.804;2022-08-01T10:23:58;98998.22;;;27.09;48.71
70027;BME280;57506;50.092;15.804;2022-08-01T10:26:25;98994.66;;;26.76;51.02
70027;BME280;57506;50.092;15.804;2022-08-01T10:28:54;98999.34;;;26.30;49.80
70027;BME280;57506;50.092;15.804;2022-08-01T10:31:20;98999.06;;;25.94;50.59
70027;BME280;57506;50.092;15.804;2022-08-01T10:33:46;98994.34;;;25.94;51.36
70027;BME280;57506;50.092;15.804;2022-08-01T10:36:13;98988.44;;;26.01;52.57
70027;BME280;57506;50.092;15.804;2022-08-01T10:38:39;98995.50;;;26.26;53.36
70027;BME280;57506;50.092;15.804;2022-08-01T10:41:05;98995.66;;;26.15;51.93
70027;BME280;57506;50.092;15.804;2022-08-01T10:43:31;98986.56;;;26.34;53.84
70027;BME280;57506;50.092;15.804;2022-08-01T10:45:57;98983.41;;;26.22;52.06
70027;BME280;57506;50.092;15.804;2022-08-01T10:48:39;98990.53;;;26.09;53.99
70027;BME280;57506;50.092;15.804;2022-08-01T10:51:08;98990.66;;;26.18;52.92
70027;BME280;57506;50.092;15.804;2022-08-01T10:53:34;98981.19;;;26.24;53.10
70027;BME280;57506;50.092;15.804;2022-08-01T10:56:01;98973.56;;;26.15;54.17
70027;BME280;57506;50.092;15.804;2022-08-01T10:58:36;98987.25;;;25.88;53.00
70027;BME280;57506;50.092;15.804;2022-08-01T11:03:45;98980.91;;;25.88;54.71
70027;BME280;57506;50.092;15.804;2022-08-01T11:06:41;98958.88;;;26.01;53.52
70027;BME280;57506;50.092;15.804;2022-08-01T11:11:58;98981.72;;;26.58;51.57
70027;BME280;57506;50.092;15.804;2022-08-01T11:14:24;98957.78;;;26.81;48.13
70027;BME280;57506;50.092;15.804;2022-08-01T11:16:50;98965.00;;;27.23;52.73
70027;BME280;57506;50.092;15.804;2022-08-01T11:19:15;98956.66;;;27.50;48.50
70027;BME280;57506;50.092;15.804;2022-08-01T11:27:29;98972.97;;;27.38;49.54
70027;BME280;57506;50.092;15.804;2022-08-01T11:32:52;98979.75;;;27.32;49.02
70027;BME280;57506;50.092;15.804;2022-08-01T11:35:19;98976.88;;;27.37;48.85
70027;BME280;57506;50.092;15.804;2022-08-01T11:37:50;98951.06;;;27.01;47.75
70027;BME280;57506;50.092;15.804;2022-08-01T11:40:24;98957.66;;;26.59;48.80
70027;BME280;57506;50.092;15.804;2022-08-01T11:45:52;98959.97;;;26.38;50.14
70027;BME280;57506;50.092;15.804;2022-08-01T11:48:22;98942.25;;;26.39;49.75
70027;BME280;57506;50.092;15.804;2022-08-01T11:50:50;98989.81;;;26.68;50.86
70027;BME280;57506;50.092;15.804;2022-08-01T11:53:16;98967.00;;;26.76;52.32
70027;BME280;57506;50.092;15.804;2022-08-01T11:55:45;98981.66;;;26.91;51.24
70027;BME280;57506;50.092;15.804;2022-08-01T11:58:12;98986.19;;;27.28;51.42
70027;BME280;57506;50.092;15.804;2022-08-01T12:00:37;98982.19;;;27.61;49.38
70027;BME280;57506;50.092;15.804;2022-08-01T12:03:05;98985.91;;;27.43;49.78
70027;BME280;57506;50.092;15.804;2022-08-01T12:05:33;98969.44;;;26.64;51.65
70027;BME280;57506;50.092;15.804;2022-08-01T12:08:00;98940.47;;;26.62;53.24
70027;BME280;57506;50.092;15.804;2022-08-01T12:10:28;98948.44;;;26.63;51.28
70027;BME280;57506;50.092;15.804;2022-08-01T12:13:02;98955.94;;;26.76;50.68
70027;BME280;57506;50.092;15.804;2022-08-01T12:15:33;98975.69;;;26.70;51.83
70027;BME280;57506;50.092;15.804;2022-08-01T12:18:04;98959.25;;;26.78;52.75
70027;BME280;57506;50.092;15.804;2022-08-01T12:20:35;98983.56;;;27.09;50.03
70027;BME280;57506;50.092;15.804;2022-08-01T12:23:03;98978.91;;;27.32;50.53
70027;BME280;57506;50.092;15.804;2022-08-01T12:25:31;98981.75;;;26.86;52.07
70027;BME280;57506;50.092;15.804;2022-08-01T12:28:00;98976.69;;;26.28;52.41
70027;BME280;57506;50.092;15.804;2022-08-01T12:30:27;98979.38;;;26.33;53.88
70027;BME280;57506;50.092;15.804;2022-08-01T12:32:53;98980.94;;;26.39;53.41
70027;BME280;57506;50.092;15.804;2022-08-01T12:35:21;98983.53;;;26.49;54.14
70027;BME280;57506;50.092;15.804;2022-08-01T12:37:52;98967.00;;;26.30;53.99
70027;BME280;57506;50.092;15.804;2022-08-01T12:40:20;98967.44;;;26.19;54.02
70027;BME280;57506;50.092;15.804;2022-08-01T12:42:48;98973.81;;;26.00;53.95
70027;BME280;57506;50.092;15.804;2022-08-01T12:45:18;98973.66;;;26.10;55.24
70027;BME280;57506;50.092;15.804;2022-08-01T12:47:45;98969.31;;;26.23;55.24
70027;BME280;57506;50.092;15.804;2022-08-01T12:50:17;98966.53;;;26.42;55.51
70027;BME280;57506;50.092;15.804;2022-08-01T12:52:43;98963.81;;;26.69;53.37
70027;BME280;57506;50.092;15.804;2022-08-01T12:55:23;98967.03;;;26.90;54.00
70027;BME280;57506;50.092;15.804;2022-08-01T12:58:17;98977.78;;;26.78;54.27
70027;BME280;57506;50.092;15.804;2022-08-01T13:00:46;98962.91;;;26.60;54.11
70027;BME280;57506;50.092;15.804;2022-08-01T13:06:29;98964.75;;;26.78;54.45
70027;BME280;57506;50.092;15.804;2022-08-01T13:09:07;98927.56;;;26.57;53.85
70027;BME280;57506;50.092;15.804;2022-08-01T13:11:34;98950.34;;;27.09;53.32
70027;BME280;57506;50.092;15.804;2022-08-01T13:14:00;98947.97;;;27.57;52.82
70027;BME280;57506;50.092;15.804;2022-08-01T13:16:26;98950.53;;;27.90;51.16
70027;BME280;57506;50.092;15.804;2022-08-01T13:18:53;98939.66;;;28.38;49.29
70027;BME280;57506;50.092;15.804;2022-08-01T13:21:28;98965.44;;;28.38;48.29
70027;BME280;57506;50.092;15.804;2022-08-01T13:24:12;98958.63;;;28.22;48.19
70027;BME280;57506;50.092;15.804;2022-08-01T13:29:15;98960.88;;;27.34;51.28